Pagrindinis puslapis
METAR-TAF:

METAR-TAF

Oro uostai :

Šanchajaus Pudongo tarptautinis oro uostas

Šanchajus-Pudong, Kinija

platuma: 31-07N, ilguma: 121-46E, Aukštis: 4 m

Dabartinis oras

Ataskaita buvo paskelbta 37 minutes, ne 08:30 UTC
Vėjas 12 kt iš Pietų/Pietryčių
Temperatūra 20°C
Drėgmė 53%
Slėgis 1016 hPa
Matomumas 10 km arba daugiau
nėra debesų žemiau 1500 m ir nėra kamuolinių lietaus debesų

METAR: ZSPD 240830Z 16006MPS CAVOK 20/10 Q1016 NOSIG

Laikas: 17:07 (09:07 UTC)

Prognozė

Ataskaita buvo paskelbta 6 valandos ir 4 minutes, ne 03:03 UTC
Prognozė galioja nuo 24 metu 06 UTC su 25 metu 06 UTC
Vėjas 8 kt iš Pietų
Matomumas: 5000 m
Su prošvaistėmis ne aukštis 2000 ft
rūkana
Tapsmas
nuo 25 metu 00 UTC su 25 metu 02 UTC
Vėjas 8 kt iš Vakarų

TAF: ZSPD 240303Z 2406/2506 19004MPS 5000 BR BKN020 TX21/2406Z TN14/2421Z BECMG 2500/2502 28004MPS

Orai ataskaitas ir orų prognozės (METAR, TAF).

turimą stotys yra geltonos ir raudonos taškus žemėlapyje.

Perkelti pele per norėdami pamatyti stoties vardą.

Tada spustelėkite, norėdami matyti oro stebėjimo ir prognozės.

Norėdami pakeisti žemėlapį: spustelėkite ant žalios mygtukų su juodo kryžiaus žemyn,; žalią mygtuką su brūkšneliu, jei norite nutolinti; arba žalių rodyklių gretimoms žemėlapius.


METAR-TAF: